createdAt,value
2022-11-09T00:01:31.848Z,9.16
2022-11-09T00:06:35.199Z,9.15
2022-11-09T00:11:43.407Z,9.15
2022-11-09T00:16:45.557Z,9.17
2022-11-09T00:21:47.418Z,9.20
2022-11-09T00:26:49.515Z,9.24
2022-11-09T00:31:51.437Z,9.25
2022-11-09T00:36:55.939Z,9.29
2022-11-09T00:41:57.734Z,9.34
2022-11-09T00:46:59.515Z,9.35
2022-11-09T00:52:01.378Z,9.33
2022-11-09T00:57:03.268Z,9.41
2022-11-09T01:02:05.468Z,9.42
2022-11-09T01:07:09.563Z,9.43
2022-11-09T01:12:11.892Z,9.44
2022-11-09T01:17:13.790Z,9.49
2022-11-09T01:22:16.566Z,9.52
2022-11-09T01:27:18.489Z,9.53
2022-11-09T01:32:20.308Z,9.52
2022-11-09T01:37:22.154Z,9.45
2022-11-09T01:42:27.312Z,9.39
2022-11-09T01:47:29.691Z,9.32
2022-11-09T01:52:36.495Z,9.25
2022-11-09T01:57:51.880Z,9.15
2022-11-09T02:02:58.949Z,8.99
2022-11-09T02:08:05.513Z,8.81
2022-11-09T02:13:09.905Z,8.63
2022-11-09T02:18:12.726Z,8.45
2022-11-09T02:23:14.906Z,8.30
2022-11-09T02:28:17.868Z,8.15
2022-11-09T02:33:20.304Z,8.06
2022-11-09T02:38:22.829Z,7.96
2022-11-09T02:43:24.748Z,7.84
2022-11-09T02:48:26.847Z,7.76
2022-11-09T02:53:28.865Z,7.69
2022-11-09T02:58:30.816Z,7.63
2022-11-09T03:03:33.115Z,7.53
2022-11-09T03:08:35.057Z,7.43
2022-11-09T03:13:37.021Z,7.37
2022-11-09T03:18:40.293Z,7.32
2022-11-09T03:23:42.869Z,7.31
2022-11-09T03:28:45.033Z,7.35
2022-11-09T03:33:47.493Z,7.41
2022-11-09T03:38:49.791Z,7.55
2022-11-09T03:43:51.847Z,7.72
2022-11-09T03:48:53.751Z,7.82
2022-11-09T03:53:55.697Z,7.89
2022-11-09T03:58:57.595Z,7.95
2022-11-09T04:03:59.610Z,8.02
2022-11-09T04:09:01.460Z,8.11
2022-11-09T04:14:03.370Z,8.16
2022-11-09T04:19:05.250Z,8.21
2022-11-09T04:24:07.235Z,8.33
2022-11-09T04:29:11.022Z,8.48
2022-11-09T04:34:12.938Z,8.63
2022-11-09T04:39:14.830Z,8.76
2022-11-09T04:44:16.713Z,8.90
2022-11-09T04:49:18.533Z,8.97
2022-11-09T04:54:20.893Z,9.05
2022-11-09T04:59:22.856Z,9.14
2022-11-09T05:04:24.700Z,9.15
2022-11-09T05:09:26.621Z,9.16
2022-11-09T05:14:28.519Z,9.16
2022-11-09T05:19:30.306Z,9.14
2022-11-09T05:24:32.234Z,9.11
2022-11-09T05:29:34.148Z,9.04
2022-11-09T05:34:35.981Z,9.00
2022-11-09T05:39:37.781Z,9.00
2022-11-09T05:44:39.616Z,8.98
2022-11-09T05:49:41.440Z,8.96
2022-11-09T05:54:43.258Z,8.90
2022-11-09T05:59:45.735Z,8.85
2022-11-09T06:04:47.643Z,8.86
2022-11-09T06:09:49.489Z,8.88
2022-11-09T06:14:51.462Z,8.91
2022-11-09T06:19:53.350Z,9.00
2022-11-09T06:24:55.144Z,9.09
2022-11-09T06:29:57.034Z,9.16
2022-11-09T06:34:58.886Z,9.24
2022-11-09T06:40:00.752Z,9.31
2022-11-09T06:45:02.624Z,9.42
2022-11-09T06:50:04.818Z,9.55
2022-11-09T06:55:08.369Z,9.68
2022-11-09T07:00:11.167Z,9.78
2022-11-09T07:05:13.259Z,9.88
2022-11-09T07:10:15.548Z,10.00
2022-11-09T07:15:18.723Z,10.11
2022-11-09T07:20:20.635Z,10.24
2022-11-09T07:25:22.498Z,10.37
2022-11-09T07:30:24.413Z,10.47
2022-11-09T07:35:27.239Z,10.57
2022-11-09T07:40:30.048Z,10.66
2022-11-09T07:45:34.236Z,10.76
2022-11-09T07:50:37.575Z,10.86
2022-11-09T07:55:39.748Z,10.96
2022-11-09T08:00:43.139Z,11.07
2022-11-09T08:05:45.313Z,11.17
2022-11-09T08:10:51.587Z,11.27
2022-11-09T08:15:53.435Z,11.37
2022-11-09T08:20:55.792Z,11.44
2022-11-09T08:25:57.929Z,11.50
2022-11-09T08:31:02.667Z,11.52
2022-11-09T08:36:13.068Z,11.48
2022-11-09T08:41:15.184Z,11.47
2022-11-09T08:46:17.093Z,11.43
2022-11-09T08:51:19.464Z,11.41
2022-11-09T08:56:21.364Z,11.40
2022-11-09T09:01:25.375Z,11.39
2022-11-09T09:06:31.112Z,11.41
2022-11-09T09:11:33.441Z,11.53
2022-11-09T09:16:35.395Z,11.65
2022-11-09T09:21:37.216Z,11.78
2022-11-09T09:26:39.290Z,11.94
2022-11-09T09:31:41.818Z,12.03
2022-11-09T09:36:48.018Z,12.14
2022-11-09T09:41:58.526Z,12.24
2022-11-09T09:47:18.827Z,12.30
2022-11-09T09:52:39.499Z,12.31
2022-11-09T09:57:46.833Z,12.41
2022-11-09T10:02:49.633Z,12.53
2022-11-09T10:08:16.220Z,12.60
2022-11-09T10:13:30.134Z,12.68
2022-11-09T10:18:50.746Z,12.80
2022-11-09T10:24:36.931Z,12.96
2022-11-09T10:29:48.876Z,13.08
2022-11-09T10:34:53.835Z,13.19
2022-11-09T10:40:11.965Z,13.26
2022-11-09T10:45:37.565Z,13.31
2022-11-09T10:50:58.468Z,13.43
2022-11-09T10:56:22.022Z,13.60
2022-11-09T11:01:43.162Z,13.69
2022-11-09T11:07:20.565Z,13.75
2022-11-09T11:13:02.167Z,13.73
2022-11-09T11:18:27.292Z,13.75
2022-11-09T11:24:29.987Z,13.83
2022-11-09T11:30:28.780Z,13.94
2022-11-09T11:35:55.114Z,14.02
2022-11-09T11:41:51.181Z,13.97
2022-11-09T11:47:25.014Z,13.91
2022-11-09T11:53:06.882Z,13.80
2022-11-09T11:58:46.592Z,13.79
2022-11-09T12:04:40.465Z,13.95
2022-11-09T12:10:22.669Z,14.15
2022-11-09T12:16:02.814Z,14.26
2022-11-09T12:21:37.424Z,14.27
2022-11-09T12:27:30.850Z,14.11
2022-11-09T12:33:12.557Z,14.04
2022-11-09T12:38:54.980Z,14.15
2022-11-09T12:44:29.120Z,14.20
2022-11-09T12:49:49.920Z,14.05
2022-11-09T12:55:21.214Z,13.94
2022-11-09T13:00:44.480Z,13.93
2022-11-09T13:06:14.376Z,13.97
2022-11-09T13:11:39.236Z,14.05
2022-11-09T13:17:02.139Z,14.08
2022-11-09T13:22:25.606Z,13.95
2022-11-09T13:27:50.718Z,13.80
2022-11-09T13:33:26.133Z,13.71
2022-11-09T13:39:07.771Z,13.56
2022-11-09T13:44:32.889Z,13.32
2022-11-09T13:49:57.787Z,13.12
2022-11-09T13:55:24.455Z,12.94
2022-11-09T14:00:47.015Z,12.81
2022-11-09T14:06:12.655Z,12.67
2022-11-09T14:11:50.372Z,12.57
2022-11-09T14:17:23.742Z,12.50
2022-11-09T14:22:44.806Z,12.43
2022-11-09T14:28:22.663Z,12.35
2022-11-09T14:33:43.328Z,12.26
2022-11-09T14:39:06.713Z,12.16
2022-11-09T14:44:35.915Z,12.01
2022-11-09T14:49:57.386Z,11.84
2022-11-09T14:55:20.327Z,11.68
2022-11-09T15:00:45.829Z,11.49
2022-11-09T15:06:10.005Z,11.33
2022-11-09T15:11:37.726Z,11.18
2022-11-09T15:17:08.161Z,11.02
2022-11-09T15:22:58.667Z,10.89
2022-11-09T15:28:21.966Z,10.76
2022-11-09T15:33:53.187Z,10.65
2022-11-09T15:39:19.395Z,10.51
2022-11-09T15:44:40.115Z,10.37
2022-11-09T15:50:04.218Z,10.24
2022-11-09T15:55:25.340Z,10.13
2022-11-09T16:00:46.627Z,10.02
2022-11-09T16:06:10.893Z,9.91
2022-11-09T16:11:31.538Z,9.79
2022-11-09T16:16:52.132Z,9.67
2022-11-09T16:22:12.587Z,9.60
2022-11-09T16:27:50.641Z,9.57
2022-11-09T16:33:12.329Z,9.51
2022-11-09T16:38:40.059Z,9.45
2022-11-09T16:44:00.614Z,9.39
2022-11-09T16:49:21.043Z,9.33
2022-11-09T16:54:41.400Z,9.27
2022-11-09T17:00:02.350Z,9.22
2022-11-09T17:05:22.768Z,9.17
2022-11-09T17:10:45.815Z,9.12
2022-11-09T17:16:12.830Z,9.06
2022-11-09T17:21:33.456Z,8.99
2022-11-09T17:26:54.115Z,8.94
2022-11-09T17:32:14.702Z,8.97
2022-11-09T17:37:35.235Z,8.87
2022-11-09T17:42:57.155Z,8.74
2022-11-09T17:48:18.299Z,8.66
2022-11-09T17:53:39.570Z,8.59
2022-11-09T17:58:59.998Z,8.52
2022-11-09T18:04:20.688Z,8.48
2022-11-09T18:09:42.584Z,8.45
2022-11-09T18:15:04.326Z,8.44
2022-11-09T18:20:25.598Z,8.46
2022-11-09T18:25:57.188Z,8.50
2022-11-09T18:31:17.503Z,8.52
2022-11-09T18:36:38.254Z,8.47
2022-11-09T18:42:00.440Z,8.45
2022-11-09T18:47:21.343Z,8.45
2022-11-09T18:52:42.022Z,8.42
2022-11-09T18:58:02.574Z,8.39
2022-11-09T19:03:23.408Z,8.40
2022-11-09T19:09:03.401Z,8.41
2022-11-09T19:14:23.704Z,8.44
2022-11-09T19:19:44.560Z,8.47
2022-11-09T19:25:05.670Z,8.53
2022-11-09T19:30:26.086Z,8.58
2022-11-09T19:36:15.181Z,8.60
2022-11-09T19:41:32.070Z,8.62
2022-11-09T19:46:52.663Z,8.62
2022-11-09T19:52:13.405Z,8.59
2022-11-09T19:57:34.227Z,8.54
2022-11-09T20:02:54.633Z,8.50
2022-11-09T20:08:15.160Z,8.49
2022-11-09T20:13:38.176Z,8.48
2022-11-09T20:18:58.944Z,8.47
2022-11-09T20:24:19.524Z,8.44
2022-11-09T20:29:39.923Z,8.38
2022-11-09T20:35:00.755Z,8.33
2022-11-09T20:40:21.347Z,8.29
2022-11-09T20:45:41.804Z,8.22
2022-11-09T20:51:07.265Z,8.12
2022-11-09T20:56:28.222Z,8.04
2022-11-09T21:01:48.930Z,7.97
2022-11-09T21:07:09.501Z,7.92
2022-11-09T21:12:30.253Z,7.89
2022-11-09T21:17:51.105Z,7.86
2022-11-09T21:23:12.240Z,7.84
2022-11-09T21:28:51.667Z,7.83
2022-11-09T21:34:12.153Z,7.82
2022-11-09T21:39:33.443Z,7.81
2022-11-09T21:44:54.159Z,7.79
2022-11-09T21:50:14.652Z,7.75
2022-11-09T21:55:35.072Z,7.71
2022-11-09T22:00:59.557Z,7.68
2022-11-09T22:06:21.164Z,7.64
2022-11-09T22:12:04.854Z,7.59
2022-11-09T22:17:25.400Z,7.58
2022-11-09T22:22:45.921Z,7.59
2022-11-09T22:28:06.722Z,7.59
2022-11-09T22:33:27.818Z,7.62
2022-11-09T22:38:48.504Z,7.65
2022-11-09T22:44:08.698Z,7.68
2022-11-09T22:49:29.414Z,7.71
2022-11-09T22:54:50.136Z,7.76
2022-11-09T23:00:14.184Z,7.80
2022-11-09T23:05:34.849Z,7.84
2022-11-09T23:10:56.430Z,7.86
2022-11-09T23:16:17.149Z,7.90
2022-11-09T23:21:37.737Z,7.92
2022-11-09T23:26:58.419Z,7.95
2022-11-09T23:32:18.613Z,7.94
2022-11-09T23:37:39.554Z,7.92
2022-11-09T23:43:05.919Z,7.91
2022-11-09T23:48:26.613Z,7.87
2022-11-09T23:53:46.996Z,7.86
2022-11-09T23:59:07.210Z,7.84
